Time;durP1;ratioP1;P1;durP2;ratioP2;P2;SDS_P1;SDS_P2;PMS_P1;PMS_P2;Temp;Humidity;BMP_temperature;BMP_pressure;BME280_temperature;BME280_humidity;BME280_pressure;Samples;Min_cycle;Max_cycle;Signal;HPM_P1;HPM_P2
2022/07/06 00:01:41;;;;;;;1.95;1.63;;;;;;;23.08;53.72;99538.97;5029477;28;20029;-88
2022/07/06 00:04:07;;;;;;;2.53;1.60;;;;;;;22.63;55.75;99530.38;5046092;28;20459;-91
2022/07/06 00:06:32;;;;;;;3.10;1.77;;;;;;;22.49;55.68;99542.06;5028510;28;20514;-89
2022/07/06 00:08:58;;;;;;;2.63;1.92;;;;;;;22.33;56.70;99580.72;5053271;28;20037;-89
2022/07/06 00:11:24;;;;;;;2.80;1.70;;;;;;;22.33;56.58;99564.59;5015102;28;20049;-90
2022/07/06 00:13:51;;;;;;;2.15;1.60;;;;;;;22.30;55.76;99539.72;5035660;28;20040;-90
2022/07/06 00:16:16;;;;;;;1.98;1.25;;;;;;;22.44;54.81;99547.75;5027015;28;20063;-90
2022/07/06 00:18:42;;;;;;;3.03;2.08;;;;;;;22.95;53.86;99568.53;5047333;28;20503;-90
2022/07/06 00:21:09;;;;;;;3.22;2.15;;;;;;;23.02;53.56;99560.91;5032123;28;20045;-90
2022/07/06 00:23:34;;;;;;;2.05;1.33;;;;;;;23.36;52.32;99574.75;5031972;28;20029;-91
2022/07/06 00:26:00;;;;;;;5.10;1.95;;;;;;;23.21;51.35;99553.31;5044739;28;20060;-92
2022/07/06 00:28:26;;;;;;;1.20;0.88;;;;;;;23.41;51.42;99551.06;5016299;28;20065;-91
2022/07/06 00:30:52;;;;;;;2.50;1.50;;;;;;;23.40;51.35;99568.16;5032362;28;20511;-93
2022/07/06 00:33:18;;;;;;;2.53;1.40;;;;;;;23.18;51.48;99510.47;5032345;28;20087;-91
2022/07/06 00:35:43;;;;;;;2.78;1.67;;;;;;;23.64;51.84;99570.09;5049567;28;20041;-91
2022/07/06 00:38:09;;;;;;;3.20;2.33;;;;;;;23.47;52.65;99556.00;5031979;28;20025;-92
2022/07/06 00:40:34;;;;;;;3.95;2.22;;;;;;;23.40;53.64;99560.97;5032740;28;20051;-93
2022/07/06 00:43:00;;;;;;;3.63;2.28;;;;;;;23.23;54.03;99523.59;5032511;28;20036;-92
2022/07/06 00:45:26;;;;;;;7.30;2.85;;;;;;;23.15;54.23;99504.47;5032881;28;20025;-92
2022/07/06 00:47:51;;;;;;;2.58;2.15;;;;;;;23.35;54.57;99546.97;5047811;28;20514;-91
2022/07/06 00:50:20;;;;;;;3.08;2.33;;;;;;;23.11;55.29;99525.34;5050031;28;20040;-89
2022/07/06 00:52:54;;;;;;;5.57;2.92;;;;;;;22.94;55.33;99494.22;5050367;28;20036;-89
2022/07/06 00:55:26;;;;;;;3.72;2.47;;;;;;;23.17;54.88;99518.66;5031862;28;20037;-89
2022/07/06 00:57:52;;;;;;;5.03;3.03;;;;;;;23.07;54.92;99518.41;5032554;28;20124;-92
2022/07/06 01:00:21;;;;;;;2.85;2.28;;;;;;;23.25;55.10;99527.06;5027945;28;20071;-94
2022/07/06 01:02:48;;;;;;;3.55;2.78;;;;;;;23.15;54.63;99520.59;5028806;28;20041;-95
2022/07/06 01:05:15;;;;;;;3.78;2.42;;;;;;;23.03;55.20;99482.81;5036847;28;20045;-94
2022/07/06 01:07:45;;;;;;;3.90;2.08;;;;;;;22.99;55.03;99492.06;5011927;28;20063;-93
2022/07/06 01:10:13;;;;;;;4.95;2.20;;;;;;;23.34;54.68;99520.16;5034365;28;20522;-91
2022/07/06 01:12:41;;;;;;;5.28;2.28;;;;;;;23.24;54.70;99490.34;5052523;28;20330;-93
2022/07/06 01:15:10;;;;;;;3.70;2.75;;;;;;;23.21;54.70;99480.66;5033982;28;20049;-91
2022/07/06 01:17:38;;;;;;;3.97;2.35;;;;;;;23.49;54.10;99483.22;5053200;28;20037;-90
2022/07/06 01:20:09;;;;;;;5.45;2.83;;;;;;;23.52;53.98;99496.47;5027057;28;20468;-90
2022/07/06 01:22:35;;;;;;;5.57;2.28;;;;;;;23.26;54.71;99469.56;5025965;28;20481;-90
2022/07/06 01:25:00;;;;;;;5.82;2.65;;;;;;;23.57;53.63;99478.13;5051920;28;20033;-92
2022/07/06 01:27:26;;;;;;;5.70;2.63;;;;;;;23.65;53.65;99465.00;5051299;28;20048;-89
2022/07/06 01:29:51;;;;;;;3.03;2.30;;;;;;;23.55;53.34;99455.84;5051845;28;20124;-89
2022/07/06 01:32:17;;;;;;;4.40;2.72;;;;;;;23.82;52.97;99468.25;5052030;28;20069;-90
2022/07/06 01:34:43;;;;;;;6.25;2.60;;;;;;;23.72;52.90;99431.25;5052025;28;20502;-90
2022/07/06 01:37:08;;;;;;;4.40;2.95;;;;;;;23.66;53.18;99415.53;5033950;28;20044;-88
2022/07/06 01:39:34;;;;;;;4.32;2.47;;;;;;;23.63;53.39;99417.63;5030969;28;20045;-91
2022/07/06 01:41:59;;;;;;;3.75;2.42;;;;;;;23.57;53.33;99402.75;5039519;28;20025;-93
2022/07/06 01:44:24;;;;;;;5.82;2.42;;;;;;;23.74;53.41;99436.50;5029398;28;20033;-91
2022/07/06 01:46:50;;;;;;;4.28;2.45;;;;;;;23.83;53.46;99435.84;5032651;28;20026;-91
2022/07/06 01:49:15;;;;;;;3.58;2.33;;;;;;;23.91;53.35;99441.56;5033837;28;20037;-91
2022/07/06 01:51:41;;;;;;;3.20;2.17;;;;;;;23.77;53.08;99431.78;5034342;28;20029;-91
2022/07/06 01:54:06;;;;;;;4.50;2.28;;;;;;;23.57;53.62;99409.03;5051055;28;20487;-90
2022/07/06 01:56:32;;;;;;;4.50;3.13;;;;;;;23.31;54.85;99399.28;5050984;28;20094;-93
2022/07/06 01:58:58;;;;;;;7.75;2.63;;;;;;;23.33;55.14;99435.03;5034237;28;20110;-92
2022/07/06 02:01:24;;;;;;;4.78;2.67;;;;;;;23.17;55.91;99429.88;5051668;28;20033;-94
2022/07/06 02:03:49;;;;;;;5.85;2.58;;;;;;;23.05;56.13;99439.66;5034173;28;20035;-93
2022/07/06 02:06:15;;;;;;;3.65;2.78;;;;;;;22.84;57.07;99420.53;5052235;28;20491;-92
2022/07/06 02:08:42;;;;;;;4.00;2.35;;;;;;;22.93;56.79;99419.03;5049622;28;20072;-92
2022/07/06 02:11:09;;;;;;;4.50;2.53;;;;;;;22.73;56.86;99402.44;5050470;28;20037;-91
2022/07/06 02:13:37;;;;;;;3.95;2.30;;;;;;;22.93;57.15;99435.16;5033428;28;20043;-92
2022/07/06 02:16:03;;;;;;;4.18;2.45;;;;;;;22.88;56.02;99397.84;5049814;28;20037;-92
2022/07/06 02:18:30;;;;;;;3.42;2.13;;;;;;;22.91;56.13;99416.44;5034264;28;20424;-91
2022/07/06 02:20:56;;;;;;;3.63;2.08;;;;;;;22.77;56.03;99403.97;5033977;28;20580;-91
2022/07/06 02:23:22;;;;;;;3.92;2.72;;;;;;;22.83;55.98;99437.59;5051022;28;20068;-91
2022/07/06 02:25:47;;;;;;;5.20;2.78;;;;;;;22.51;56.80;99395.03;5049653;28;20495;-91
2022/07/06 02:28:13;;;;;;;3.95;2.15;;;;;;;22.43;57.38;99408.13;5051693;28;20491;-91
2022/07/06 02:30:38;;;;;;;3.83;2.22;;;;;;;22.23;58.15;99402.28;5033857;28;20029;-90
2022/07/06 02:33:04;;;;;;;3.78;2.20;;;;;;;22.13;58.10;99393.94;5051609;28;20036;-93
2022/07/06 02:35:29;;;;;;;3.78;2.88;;;;;;;22.26;58.71;99419.97;5033001;28;20041;-92
2022/07/06 02:37:55;;;;;;;3.03;2.17;;;;;;;22.02;58.71;99384.94;5051543;28;20495;-89
2022/07/06 02:40:20;;;;;;;4.75;3.30;;;;;;;21.97;58.75;99380.72;5033006;28;20071;-88
2022/07/06 02:42:46;;;;;;;5.07;2.97;;;;;;;22.08;58.84;99395.25;5050354;28;20426;-92
2022/07/06 02:45:12;;;;;;;3.90;2.53;;;;;;;22.06;59.10;99413.28;5050091;28;20033;-88
2022/07/06 02:47:40;;;;;;;3.35;2.13;;;;;;;22.02;59.04;99412.63;5050939;28;20033;-91
2022/07/06 02:50:07;;;;;;;5.88;2.78;;;;;;;21.61;59.19;99370.59;5030239;28;20496;-94
2022/07/06 02:52:33;;;;;;;4.50;2.42;;;;;;;21.97;58.59;99415.63;5033223;28;20071;-90
2022/07/06 02:54:58;;;;;;;3.55;2.53;;;;;;;21.83;58.42;99383.47;5031227;28;20061;-89
2022/07/06 02:57:24;;;;;;;3.63;2.60;;;;;;;22.08;58.71;99411.38;5050702;28;20032;-88
2022/07/06 02:59:49;;;;;;;4.53;3.15;;;;;;;22.00;58.43;99393.09;5050966;28;20579;-89
2022/07/06 03:02:16;;;;;;;3.67;2.13;;;;;;;22.17;58.31;99419.66;5050401;28;20415;-91
2022/07/06 03:04:42;;;;;;;3.97;2.00;;;;;;;22.17;58.06;99426.84;5050299;28;20491;-84
2022/07/06 03:07:07;;;;;;;4.22;2.28;;;;;;;22.30;57.96;99427.75;5050216;28;20025;-91
2022/07/06 03:09:33;;;;;;;2.40;1.85;;;;;;;22.38;58.05;99442.50;5050751;28;20048;-90
2022/07/06 03:11:58;;;;;;;2.78;2.38;;;;;;;22.20;57.90;99421.28;5031779;28;20423;-88
2022/07/06 03:14:25;;;;;;;3.58;2.08;;;;;;;22.33;58.18;99421.34;5050280;28;20507;-95
2022/07/06 03:16:50;;;;;;;6.68;3.60;;;;;;;22.18;58.38;99416.00;5049528;28;20041;-88
2022/07/06 03:19:16;;;;;;;2.85;2.17;;;;;;;22.16;58.87;99422.44;5030394;28;20040;-92
2022/07/06 03:21:41;;;;;;;3.72;2.33;;;;;;;22.25;58.69;99420.97;5028410;28;20503;-87
2022/07/06 03:24:07;;;;;;;4.55;2.97;;;;;;;22.43;58.60;99440.38;5029690;28;20052;-90
2022/07/06 03:26:34;;;;;;;3.33;2.22;;;;;;;22.55;58.83;99450.28;5031551;28;20042;-89
2022/07/06 03:28:59;;;;;;;4.07;2.35;;;;;;;22.35;59.52;99417.59;5049948;28;20120;-88
2022/07/06 03:31:25;;;;;;;4.50;2.33;;;;;;;22.40;58.31;99436.09;5026701;28;20141;-86
2022/07/06 03:33:51;;;;;;;3.25;2.20;;;;;;;22.38;58.29;99421.88;5038069;28;20025;-89
2022/07/06 03:36:17;;;;;;;3.25;2.25;;;;;;;22.40;58.18;99417.28;5015382;28;20106;-91
2022/07/06 03:38:42;;;;;;;3.83;2.50;;;;;;;22.37;58.09;99427.34;5050292;28;20033;-90
2022/07/06 03:41:08;;;;;;;5.30;3.13;;;;;;;22.75;58.35;99469.56;5048924;28;20479;-91
2022/07/06 03:43:33;;;;;;;4.03;2.28;;;;;;;22.83;58.24;99470.75;5032469;28;20033;-89
2022/07/06 03:45:59;;;;;;;3.83;2.25;;;;;;;22.62;58.11;99431.91;5030817;28;20084;-92
2022/07/06 03:48:25;;;;;;;4.78;2.50;;;;;;;22.57;57.58;99425.97;5049034;28;20418;-88
2022/07/06 03:50:50;;;;;;;3.33;2.00;;;;;;;22.76;56.98;99445.25;5050070;28;20033;-89
2022/07/06 03:53:16;;;;;;;4.35;2.55;;;;;;;22.88;57.44;99432.78;5051030;28;20037;-87
2022/07/06 03:55:41;;;;;;;5.88;3.70;;;;;;;22.91;57.18;99429.88;5053598;28;20513;-89
2022/07/06 03:58:07;;;;;;;4.15;2.95;;;;;;;22.76;57.20;99447.94;5052997;28;20127;-88
2022/07/06 04:00:34;;;;;;;3.67;2.03;;;;;;;23.01;57.02;99449.75;5053360;28;20028;-89
2022/07/06 04:03:00;;;;;;;3.80;2.63;;;;;;;23.12;56.91;99449.03;5053008;28;20116;-88
2022/07/06 04:05:25;;;;;;;4.57;3.05;;;;;;;23.33;56.26;99411.66;5052776;28;20100;-88
2022/07/06 04:07:50;;;;;;;5.88;3.40;;;;;;;;;;5053728;28;20932;-90
2022/07/06 04:10:16;;;;;;;5.47;3.40;;;;;;;23.83;54.76;99461.91;5053475;28;20036;-88
2022/07/06 04:12:45;;;;;;;6.15;3.13;;;;;;;23.93;54.64;99458.47;5038808;28;20028;-89
2022/07/06 04:15:11;;;;;;;4.60;2.75;;;;;;;23.96;54.59;99462.78;5052872;28;20045;-92
2022/07/06 04:17:53;;;;;;;3.70;2.65;;;;;;;23.74;55.43;99447.28;5034990;28;20037;-93
2022/07/06 04:20:20;;;;;;;4.32;3.08;;;;;;;23.97;55.93;99469.84;5029391;28;20121;-90
2022/07/06 04:22:46;;;;;;;7.75;3.35;;;;;;;23.94;55.74;99453.91;5016344;28;20415;-89
2022/07/06 04:25:11;;;;;;;3.58;2.20;;;;;;;23.85;55.48;99477.03;5011888;28;20120;-90
2022/07/06 04:27:37;;;;;;;4.40;3.00;;;;;;;24.08;55.08;99479.84;5016054;28;20500;-88
2022/07/06 04:30:04;;;;;;;9.18;3.25;;;;;;;24.27;54.91;99485.56;5046665;28;20025;-92
2022/07/06 04:32:29;;;;;;;3.67;2.50;;;;;;;24.24;55.08;99458.00;5048751;28;20048;-90
2022/07/06 04:34:55;;;;;;;4.88;2.85;;;;;;;24.45;55.74;99477.94;5052991;28;20033;-89
2022/07/06 04:37:20;;;;;;;5.38;3.45;;;;;;;24.39;55.24;99455.97;5051330;28;20465;-90
2022/07/06 04:39:45;;;;;;;4.32;2.45;;;;;;;24.64;55.67;99458.53;5052773;28;20025;-90
2022/07/06 04:42:11;;;;;;;4.82;3.55;;;;;;;24.64;53.66;99452.28;5052388;28;20384;-92
2022/07/06 04:44:36;;;;;;;7.60;3.60;;;;;;;24.65;54.68;99445.91;5051563;28;20035;-92
2022/07/06 04:47:02;;;;;;;4.85;3.85;;;;;;;24.92;54.86;99477.97;5052239;28;20040;-90
2022/07/06 04:49:27;;;;;;;5.32;3.10;;;;;;;25.08;53.48;99445.22;5051279;28;20060;-91
2022/07/06 04:51:53;;;;;;;4.63;2.97;;;;;;;25.48;52.91;99450.16;5052345;28;20083;-90
2022/07/06 04:54:18;;;;;;;5.10;3.08;;;;;;;25.59;51.36;99451.13;5051726;28;20090;-90
2022/07/06 04:56:44;;;;;;;4.32;3.38;;;;;;;25.53;52.22;99460.56;5053236;28;20035;-93
2022/07/06 04:59:09;;;;;;;4.82;2.92;;;;;;;25.94;52.36;99469.00;5053494;28;20037;-92
2022/07/06 05:01:35;;;;;;;6.88;3.17;;;;;;;25.81;52.83;99451.09;5053375;28;20028;-91
2022/07/06 05:04:00;;;;;;;5.65;3.92;;;;;;;25.76;53.41;99450.59;5065074;28;20541;-92
2022/07/06 05:06:26;;;;;;;5.70;3.10;;;;;;;25.57;54.69;99447.72;5050696;28;20128;-91
2022/07/06 05:08:51;;;;;;;4.95;2.60;;;;;;;25.38;56.16;99441.94;5062683;28;20036;-93
2022/07/06 05:11:17;;;;;;;4.50;3.38;;;;;;;25.20;56.94;99468.53;5052750;28;20028;-91
2022/07/06 05:13:42;;;;;;;8.02;4.45;;;;;;;25.09;57.14;99438.00;5052437;28;20462;-91
2022/07/06 05:16:08;;;;;;;6.53;4.18;;;;;;;25.01;58.24;99444.88;5032960;28;20068;-93
2022/07/06 05:18:34;;;;;;;5.15;3.00;;;;;;;25.25;58.55;99467.31;5052867;28;20036;-92
2022/07/06 05:20:59;;;;;;;5.00;3.60;;;;;;;25.35;56.85;99453.00;5051842;28;20028;-89
2022/07/06 05:23:25;;;;;;;6.60;4.25;;;;;;;25.25;57.89;99437.63;5052217;28;20033;-89
2022/07/06 05:25:51;;;;;;;7.88;3.05;;;;;;;25.37;56.91;99460.97;5052116;28;20029;-91
2022/07/06 05:28:16;;;;;;;5.07;3.75;;;;;;;25.41;56.93;99467.84;5052436;28;20031;-91
2022/07/06 05:30:41;;;;;;;5.05;3.58;;;;;;;25.29;57.19;99461.59;5052648;28;20025;-91
2022/07/06 05:33:07;;;;;;;5.43;3.08;;;;;;;25.38;56.98;99463.53;5032925;28;20033;-91
2022/07/06 05:35:32;;;;;;;6.35;3.17;;;;;;;25.52;56.66;99456.19;5032064;28;20061;-87
2022/07/06 05:37:58;;;;;;;4.78;2.97;;;;;;;25.70;56.77;99468.19;5032475;28;20033;-89
2022/07/06 05:40:23;;;;;;;4.75;2.90;;;;;;;25.70;56.00;99500.59;5032031;28;20472;-88
2022/07/06 05:42:49;;;;;;;3.97;2.83;;;;;;;25.84;55.44;99502.19;5032601;28;20151;-88
2022/07/06 05:45:14;;;;;;;5.40;3.70;;;;;;;25.48;56.12;99481.69;5032274;28;20029;-88
2022/07/06 05:50:24;;;;;;;4.70;3.63;;;;;;;25.68;56.14;99499.84;5050945;28;20485;-87
2022/07/06 05:53:00;;;;;;;3.63;2.67;;;;;;;26.04;56.23;99516.78;5052162;28;20024;-87
2022/07/06 05:55:27;;;;;;;7.22;3.85;;;;;;;26.01;54.30;99529.66;5052286;28;20491;-87
2022/07/06 05:57:56;;;;;;;4.88;2.78;;;;;;;26.14;54.69;99494.41;5051318;28;20131;-87
2022/07/06 06:00:23;;;;;;;4.13;3.00;;;;;;;26.48;54.26;99505.94;5051872;28;20033;-87
2022/07/06 06:02:48;;;;;;;5.13;2.67;;;;;;;26.54;53.97;99518.06;5051276;28;20033;-87
2022/07/06 06:05:15;;;;;;;3.78;2.30;;;;;;;25.99;54.99;99480.31;5052203;28;20036;-87
2022/07/06 06:07:41;;;;;;;4.40;2.72;;;;;;;26.01;56.02;99508.94;5051328;28;20040;-87
2022/07/06 06:10:09;;;;;;;6.25;3.30;;;;;;;26.11;55.12;99521.69;5051815;28;20479;-87
2022/07/06 06:12:35;;;;;;;6.25;3.30;;;;;;;26.20;55.37;99510.09;5033699;28;20045;-87
2022/07/06 06:15:01;;;;;;;3.85;2.65;;;;;;;26.30;53.88;99515.59;5051797;28;20049;-86
2022/07/06 06:17:27;;;;;;;4.53;3.13;;;;;;;26.27;54.04;99482.44;5050446;28;20399;-88
2022/07/06 06:19:52;;;;;;;5.03;2.58;;;;;;;26.83;54.31;99510.19;5051795;28;20039;-86
2022/07/06 06:22:18;;;;;;;8.90;2.90;;;;;;;27.10;52.53;99506.97;5033186;28;20040;-86
2022/07/06 06:24:44;;;;;;;4.47;3.40;;;;;;;27.35;51.26;99502.13;5051036;28;20086;-87
2022/07/06 06:27:09;;;;;;;4.40;3.20;;;;;;;26.98;52.24;99502.63;5051618;28;20040;-86
2022/07/06 06:29:35;;;;;;;3.55;2.53;;;;;;;27.18;52.13;99503.59;5051388;28;20108;-86
2022/07/06 06:32:00;;;;;;;7.18;4.07;;;;;;;27.03;53.85;99484.13;5050715;28;20551;-87
2022/07/06 06:34:26;;;;;;;4.85;3.20;;;;;;;27.48;51.07;99474.81;5051679;28;20029;-86
2022/07/06 06:36:51;;;;;;;6.05;3.17;;;;;;;26.90;52.75;99478.06;5051019;28;20102;-87
2022/07/06 06:39:17;;;;;;;4.72;3.30;;;;;;;26.99;53.44;99517.88;5051490;28;20072;-87
2022/07/06 06:41:42;;;;;;;5.15;3.42;;;;;;;26.98;53.35;99519.69;5051484;28;20033;-88
2022/07/06 06:44:08;;;;;;;5.47;3.42;;;;;;;26.37;54.41;99519.47;5051274;28;20475;-87
2022/07/06 06:46:33;;;;;;;5.38;3.65;;;;;;;26.51;53.86;99527.31;5050912;28;20033;-89
2022/07/06 06:48:59;;;;;;;5.38;4.00;;;;;;;26.36;54.60;99534.00;5051319;28;20024;-86
2022/07/06 06:51:25;;;;;;;4.53;3.47;;;;;;;26.53;55.01;99541.56;5051296;28;20029;-88
2022/07/06 06:53:50;;;;;;;6.00;4.95;;;;;;;26.63;54.12;99531.69;5050959;28;20032;-88
2022/07/06 06:56:16;;;;;;;6.50;3.75;;;;;;;26.57;54.11;99520.50;5051118;28;20037;-88
2022/07/06 06:58:42;;;;;;;4.65;3.40;;;;;;;26.67;53.41;99524.19;5051025;28;20036;-89
2022/07/06 07:01:08;;;;;;;5.63;3.75;;;;;;;27.11;52.44;99515.94;5049718;28;20419;-90
2022/07/06 07:03:33;;;;;;;3.97;2.78;;;;;;;27.41;50.98;99498.88;5051021;28;20093;-92
2022/07/06 07:05:59;;;;;;;5.75;3.72;;;;;;;27.64;51.63;99512.25;5050378;28;20024;-88
2022/07/06 07:08:24;;;;;;;5.00;3.08;;;;;;;27.44;50.04;99497.78;5050250;28;20029;-87
2022/07/06 07:10:50;;;;;;;4.38;2.78;;;;;;;27.28;50.39;99490.97;5049236;28;20179;-87
2022/07/06 07:13:15;;;;;;;6.30;4.15;;;;;;;27.13;51.18;99505.84;5049931;28;20059;-90
2022/07/06 07:15:41;;;;;;;4.32;2.72;;;;;;;27.15;51.71;99514.69;5049505;28;20049;-89
2022/07/06 07:18:06;;;;;;;6.10;3.70;;;;;;;27.01;51.88;99482.56;5032544;28;20037;-87
2022/07/06 07:20:33;;;;;;;6.22;4.22;;;;;;;27.41;52.97;99487.22;5050029;28;20032;-93
2022/07/06 07:23:02;;;;;;;5.78;3.40;;;;;;;27.68;50.56;99497.41;5051267;28;20056;-94
2022/07/06 07:25:27;;;;;;;4.47;3.10;;;;;;;28.19;50.55;99522.66;5032281;28;20036;-92
2022/07/06 07:27:53;;;;;;;5.70;3.63;;;;;;;28.57;49.91;99500.13;5034223;28;20124;-92
2022/07/06 07:30:19;;;;;;;5.38;3.28;;;;;;;28.31;48.85;99469.16;5037410;28;20029;-92
2022/07/06 07:32:45;;;;;;;7.25;4.35;;;;;;;28.29;48.48;99501.84;5054717;28;20040;-93
2022/07/06 07:35:11;;;;;;;5.72;3.83;;;;;;;28.14;49.87;99473.44;5036793;28;20029;-90
2022/07/06 07:37:36;;;;;;;10.15;4.43;;;;;;;28.47;48.11;99496.59;5053108;28;20045;-89
2022/07/06 07:40:02;;;;;;;4.53;3.22;;;;;;;28.82;47.40;99511.44;5054291;28;20418;-90
2022/07/06 07:42:28;;;;;;;7.18;4.45;;;;;;;29.23;47.79;99512.09;5054632;28;20037;-89
2022/07/06 07:44:53;;;;;;;4.63;2.97;;;;;;;29.74;46.71;99490.88;5053752;28;20078;-93
2022/07/06 07:47:19;;;;;;;5.70;3.80;;;;;;;29.56;45.75;99496.22;5054709;28;20029;-91
2022/07/06 07:49:45;;;;;;;6.03;2.88;;;;;;;29.51;45.83;99498.56;5036080;28;20506;-91
2022/07/06 07:52:10;;;;;;;3.90;3.50;;;;;;;29.20;46.77;99481.66;5036722;28;20021;-91
2022/07/06 07:54:36;;;;;;;5.13;3.72;;;;;;;29.67;45.48;99503.34;5054208;28;20025;-91
2022/07/06 07:57:02;;;;;;;6.28;4.10;;;;;;;29.92;44.14;99490.06;5054021;28;20029;-90
2022/07/06 07:59:28;;;;;;;4.88;3.47;;;;;;;29.36;44.17;99481.88;5054642;28;20033;-90
2022/07/06 08:01:54;;;;;;;5.22;3.38;;;;;;;29.24;46.82;99515.66;5055056;28;20167;-91
2022/07/06 08:04:20;;;;;;;5.15;3.55;;;;;;;29.03;47.35;99515.84;5054966;28;20039;-91
2022/07/06 08:06:45;;;;;;;4.65;3.40;;;;;;;29.19;45.34;99515.22;5053973;28;20037;-91
2022/07/06 08:09:11;;;;;;;5.65;3.53;;;;;;;29.45;45.31;99485.56;5054439;28;20426;-92
2022/07/06 08:11:36;;;;;;;6.20;3.83;;;;;;;29.32;46.72;99464.19;5053723;28;20029;-91
2022/07/06 08:14:03;;;;;;;7.68;3.70;;;;;;;29.92;46.51;99493.66;5053801;28;20072;-93
2022/07/06 08:16:28;;;;;;;5.07;3.20;;;;;;;29.74;43.87;99493.56;5054712;28;20601;-93
2022/07/06 08:18:54;;;;;;;4.28;3.30;;;;;;;29.38;44.03;99476.28;5055776;28;20025;-94
2022/07/06 08:21:19;;;;;;;5.57;3.67;;;;;;;29.24;46.46;99496.66;5056742;28;20029;-90
2022/07/06 08:23:45;;;;;;;5.05;3.78;;;;;;;29.64;45.87;99501.78;5056274;28;20423;-94
2022/07/06 08:26:11;;;;;;;4.38;3.15;;;;;;;29.78;44.71;99485.97;5054723;28;20037;-95
2022/07/06 08:28:36;;;;;;;5.68;3.25;;;;;;;29.88;46.26;99464.22;5054255;28;20032;-92
2022/07/06 08:31:02;;;;;;;5.53;4.10;;;;;;;29.62;46.46;99482.03;5054489;28;20116;-93
2022/07/06 08:33:27;;;;;;;5.20;3.35;;;;;;;29.80;46.85;99495.72;5035818;28;20118;-92
2022/07/06 08:35:53;;;;;;;6.90;3.50;;;;;;;29.79;44.83;99487.69;5053409;28;20029;-90
2022/07/06 08:38:18;;;;;;;4.75;3.17;;;;;;;30.00;44.22;99498.34;5053742;28;20108;-89
2022/07/06 08:40:48;;;;;;;5.22;3.72;;;;;;;29.23;44.92;99476.78;5042466;28;20124;-93
2022/07/06 08:43:14;;;;;;;7.82;5.43;;;;;;;29.26;45.66;99470.22;5033432;28;20029;-92
2022/07/06 08:45:43;;;;;;;9.23;6.20;;;;;;;29.04;46.33;99488.53;5015462;28;20030;-93
2022/07/06 08:48:10;;;;;;;7.50;3.10;;;;;;;28.87;45.51;99470.28;5016017;28;20514;-91
2022/07/06 08:50:36;;;;;;;6.90;4.80;;;;;;;28.69;46.84;99489.19;5015629;28;20090;-90
2022/07/06 08:53:02;;;;;;;9.98;6.05;;;;;;;29.05;47.10;99465.81;5033424;28;20041;-91
2022/07/06 08:55:27;;;;;;;6.10;4.07;;;;;;;29.38;47.00;99488.03;5034245;28;20029;-93
2022/07/06 08:57:56;;;;;;;5.38;2.85;;;;;;;29.54;45.37;99467.53;5016108;28;20484;-95
2022/07/06 09:00:23;;;;;;;5.32;3.50;;;;;;;29.90;46.00;99483.94;4999449;28;20045;-92
2022/07/06 09:02:50;;;;;;;6.90;4.63;;;;;;;29.85;46.28;99456.38;5024253;28;20471;-94
2022/07/06 09:05:17;;;;;;;5.68;3.70;;;;;;;29.46;44.25;99479.13;5036357;28;20423;-92
2022/07/06 09:07:48;;;;;;;6.15;3.33;;;;;;;29.46;46.80;99469.13;5034575;28;20119;-90
2022/07/06 09:10:16;;;;;;;4.68;3.78;;;;;;;29.39;47.19;99491.59;5034846;28;20033;-92
2022/07/06 09:12:42;;;;;;;5.53;3.35;;;;;;;29.39;45.47;99476.16;5053832;28;20041;-91
2022/07/06 09:15:08;;;;;;;4.97;3.47;;;;;;;28.94;47.20;99487.69;5053489;28;20106;-93
2022/07/06 09:17:37;;;;;;;5.20;3.15;;;;;;;29.03;46.12;99496.84;5053414;28;20082;-91
2022/07/06 09:20:06;;;;;;;5.07;3.38;;;;;;;29.00;45.68;99484.41;5035560;28;20033;-96
2022/07/06 09:22:35;;;;;;;5.30;3.60;;;;;;;29.05;46.52;99514.66;5035977;28;20500;-95
2022/07/06 09:25:05;;;;;;;4.97;3.38;;;;;;;28.78;47.92;99509.16;5036268;28;20090;-94
2022/07/06 09:27:31;;;;;;;5.40;3.40;;;;;;;29.07;48.00;99500.94;5035479;28;20036;-95
2022/07/06 09:30:03;;;;;;;6.65;4.32;;;;;;;28.73;48.84;99464.31;5035741;28;20029;-96
2022/07/06 09:32:31;;;;;;;5.63;3.97;;;;;;;29.01;47.89;99506.97;5036825;28;20083;-93
2022/07/06 09:34:56;;;;;;;5.32;3.90;;;;;;;29.38;47.71;99507.06;5035478;28;20033;-94
2022/07/06 09:37:23;;;;;;;6.90;4.85;;;;;;;29.09;47.16;99509.81;5020623;28;20056;-94
2022/07/06 09:39:49;;;;;;;6.57;4.70;;;;;;;28.94;47.38;99501.28;5039902;28;20542;-94
2022/07/06 09:42:15;;;;;;;6.15;4.05;;;;;;;29.17;46.85;99490.09;5036122;28;20067;-96
2022/07/06 09:44:42;;;;;;;6.35;4.22;;;;;;;29.72;47.46;99486.56;5035697;28;20029;-94
2022/07/06 09:47:11;;;;;;;7.20;3.70;;;;;;;29.68;45.35;99477.88;5036462;28;20040;-95
2022/07/06 09:49:39;;;;;;;8.98;5.40;;;;;;;29.78;46.64;99470.53;5035035;28;20406;-96
2022/07/06 09:52:09;;;;;;;12.13;8.95;;;;;;;29.84;44.88;99482.66;5035436;28;20132;-93
2022/07/06 09:54:38;;;;;;;9.82;4.43;;;;;;;29.70;46.34;99464.13;5036387;28;20052;-93
2022/07/06 09:57:05;;;;;;;6.63;4.57;;;;;;;30.07;47.54;99487.69;5035449;28;20068;-96
2022/07/06 09:59:33;;;;;;;6.63;3.95;;;;;;;29.74;45.85;99468.28;5034393;28;20499;-92
2022/07/06 10:02:01;;;;;;;9.18;5.07;;;;;;;29.84;46.06;99452.78;5033275;28;20033;-90
2022/07/06 10:04:28;;;;;;;5.90;3.67;;;;;;;29.83;45.56;99470.09;5052450;28;20094;-94
2022/07/06 10:06:55;;;;;;;6.72;4.18;;;;;;;30.10;45.59;99462.91;5034232;28;20033;-95
2022/07/06 10:09:23;;;;;;;6.63;3.97;;;;;;;30.28;44.76;99474.66;5052404;28;20037;-93
2022/07/06 10:11:54;;;;;;;6.90;3.63;;;;;;;30.26;45.33;99468.53;5032925;28;20032;-92
2022/07/06 10:14:22;;;;;;;5.50;3.60;;;;;;;29.88;46.02;99458.78;5052775;28;20118;-91
2022/07/06 10:16:49;;;;;;;5.05;3.30;;;;;;;29.79;45.65;99427.88;5034409;28;20574;-92
2022/07/06 10:19:16;;;;;;;8.20;3.35;;;;;;;30.25;45.36;99441.47;5051849;28;20028;-94
2022/07/06 10:21:43;;;;;;;6.45;3.78;;;;;;;30.05;46.51;99443.50;5052099;28;20029;-94
2022/07/06 10:24:11;;;;;;;5.57;3.95;;;;;;;30.08;44.69;99435.03;5034438;28;20029;-96
2022/07/06 10:26:36;;;;;;;5.68;3.47;;;;;;;30.42;47.53;99450.66;5033108;28;20037;-92
2022/07/06 10:29:06;;;;;;;5.63;4.00;;;;;;;30.39;45.08;99446.38;5033479;28;20037;-92
2022/07/06 10:31:35;;;;;;;4.70;3.30;;;;;;;30.82;44.55;99427.50;5032964;28;20036;-92
2022/07/06 10:34:02;;;;;;;5.35;3.58;;;;;;;31.24;44.55;99446.66;5051540;28;20040;-93
2022/07/06 10:36:29;;;;;;;6.00;3.30;;;;;;;31.37;43.89;99439.91;5051064;28;20546;-91
2022/07/06 10:38:55;;;;;;;8.23;3.97;;;;;;;31.48;43.97;99417.81;5051804;28;20127;-91
2022/07/06 10:41:32;;;;;;;4.95;3.38;;;;;;;31.80;41.59;99439.91;5029321;28;20048;-92
2022/07/06 10:44:15;;;;;;;5.93;4.00;;;;;;;31.62;40.54;99426.41;5028807;28;20029;-91
2022/07/06 10:46:40;;;;;;;4.75;3.25;;;;;;;31.18;40.21;99414.59;5034237;28;20075;-91
2022/07/06 10:49:16;;;;;;;5.32;3.78;;;;;;;30.98;40.44;99392.22;5067054;28;20029;-90
2022/07/06 10:51:42;;;;;;;6.20;3.20;;;;;;;31.32;39.67;99429.47;5062147;28;20052;-92
2022/07/06 10:54:10;;;;;;;4.35;2.72;;;;;;;31.34;39.13;99408.41;5056141;28;20028;-90
2022/07/06 10:56:40;;;;;;;5.88;4.07;;;;;;;31.86;39.11;99421.00;5051013;28;20029;-90
2022/07/06 10:59:29;;;;;;;3.63;2.63;;;;;;;31.83;37.84;99425.94;5051585;28;20040;-94
2022/07/06 11:02:12;;;;;;;4.50;3.35;;;;;;;30.82;37.07;99432.94;5048899;28;20037;-91
2022/07/06 11:04:38;;;;;;;4.95;2.95;;;;;;;31.00;41.17;99432.91;5033447;28;20128;-91
2022/07/06 11:07:09;;;;;;;5.60;3.63;;;;;;;31.05;38.78;99430.56;5032925;28;20040;-93
2022/07/06 11:09:36;;;;;;;15.23;3.95;;;;;;;30.73;38.43;99403.97;5033707;28;20469;-90
2022/07/06 11:12:23;;;;;;;3.72;2.72;;;;;;;31.55;38.13;99427.06;5050578;28;20125;-90
2022/07/06 11:14:51;;;;;;;4.38;2.90;;;;;;;31.55;38.13;99418.88;5028501;28;20405;-91
2022/07/06 11:17:17;;;;;;;5.20;3.67;;;;;;;32.08;42.50;99394.94;5030667;28;20035;-90
2022/07/06 11:20:09;;;;;;;4.68;2.90;;;;;;;32.60;36.12;99407.44;5024599;28;20125;-92
2022/07/06 11:22:37;;;;;;;5.07;3.30;;;;;;;31.95;38.98;99387.28;5000307;28;20042;-92
2022/07/06 11:25:04;;;;;;;4.28;3.05;;;;;;;32.01;38.59;99403.97;5011435;28;20655;-91
2022/07/06 11:27:29;;;;;;;3.88;2.38;;;;;;;31.65;36.66;99374.28;5011542;28;20029;-90
2022/07/06 11:29:55;;;;;;;5.70;3.28;;;;;;;31.11;38.97;99396.34;5010981;28;20484;-91
2022/07/06 11:32:26;;;;;;;4.57;2.72;;;;;;;31.72;37.67;99402.59;5021549;28;20493;-92
2022/07/06 11:34:52;;;;;;;6.90;3.08;;;;;;;31.53;37.06;99371.84;5022406;28;20034;-92